Time;durP1;ratioP1;P1;durP2;ratioP2;P2;SDS_P1;SDS_P2;PMS_P1;PMS_P2;Temp;Humidity;BMP_temperature;BMP_pressure;BME280_temperature;BME280_humidity;BME280_pressure;Samples;Min_cycle;Max_cycle;Signal;HPM_P1;HPM_P2
2022/11/30 00:02:05;;;;;;;193.47;40.63;;;;;;;7.23;100.00;149275.16;5030125;28;20022;-63
2022/11/30 00:04:31;;;;;;;195.57;41.10;;;;;;;7.23;100.00;149275.16;5027291;28;20029;-63
2022/11/30 00:06:56;;;;;;;143.53;36.93;;;;;;;7.20;100.00;149267.41;5035210;28;20032;-63
2022/11/30 00:09:23;;;;;;;138.13;36.60;;;;;;;7.15;100.00;149254.47;5028731;28;20040;-63
2022/11/30 00:11:48;;;;;;;159.73;39.27;;;;;;;7.17;100.00;149259.69;5047142;28;20040;-63
2022/11/30 00:14:13;;;;;;;141.67;37.20;;;;;;;7.14;100.00;149251.88;5041421;28;20037;-63
2022/11/30 00:16:39;;;;;;;147.87;37.90;;;;;;;7.14;100.00;149251.88;5035378;28;20029;-63
2022/11/30 00:19:04;;;;;;;100.83;31.37;;;;;;;7.14;100.00;149251.88;5031318;28;20609;-62
2022/11/30 00:21:30;;;;;;;110.23;33.40;;;;;;;7.14;100.00;149251.88;5030346;28;20378;-63
2022/11/30 00:23:55;;;;;;;129.40;35.93;;;;;;;7.11;100.00;149245.44;5019041;28;20106;-64
2022/11/30 00:26:21;;;;;;;127.60;37.47;;;;;;;7.10;100.00;149241.56;5021943;28;20032;-63
2022/11/30 00:28:47;;;;;;;121.07;34.37;;;;;;;7.05;100.00;149231.25;5035630;28;20094;-63
2022/11/30 00:31:14;;;;;;;102.53;31.57;;;;;;;7.05;100.00;149229.97;5035471;28;20021;-63
2022/11/30 00:33:40;;;;;;;126.57;35.93;;;;;;;6.99;100.00;149215.75;5012467;28;20037;-64
2022/11/30 00:36:09;;;;;;;122.63;35.43;;;;;;;6.97;100.00;149210.59;5025904;28;20113;-64
2022/11/30 00:38:34;;;;;;;122.27;35.80;;;;;;;6.94;100.00;149201.56;5031458;28;20043;-63
2022/11/30 00:41:01;;;;;;;131.30;36.30;;;;;;;6.95;100.00;149204.13;5032342;28;20481;-63
2022/11/30 00:43:26;;;;;;;138.43;37.50;;;;;;;6.90;100.00;149191.19;5033172;28;20021;-63
2022/11/30 00:45:52;;;;;;;147.10;38.30;;;;;;;6.93;100.00;149200.28;5029330;28;20071;-64
2022/11/30 00:48:17;;;;;;;142.87;37.30;;;;;;;6.96;100.00;149208.00;5032314;28;20717;-63
2022/11/30 00:50:43;;;;;;;128.87;36.63;;;;;;;6.97;100.00;149209.28;5030204;28;20029;-63
2022/11/30 00:53:08;;;;;;;128.10;36.03;;;;;;;6.93;100.00;149200.28;5031477;28;20025;-64
2022/11/30 00:55:34;;;;;;;121.30;34.60;;;;;;;6.92;100.00;149197.69;5029706;28;20038;-63
2022/11/30 00:58:00;;;;;;;128.00;35.40;;;;;;;6.91;100.00;149193.81;5022699;28;20096;-63
2022/11/30 01:00:26;;;;;;;97.50;29.30;;;;;;;6.84;100.00;149177.03;5025774;28;20029;-64
2022/11/30 01:02:58;;;;;;;97.20;30.50;;;;;;;6.86;100.00;149182.19;5032656;28;20497;-64
2022/11/30 01:05:23;;;;;;;92.38;29.88;;;;;;;6.86;100.00;149180.88;5030682;28;20109;-63
2022/11/30 01:07:49;;;;;;;103.20;31.47;;;;;;;6.81;100.00;149169.28;5030834;28;20069;-63
2022/11/30 01:10:15;;;;;;;107.17;31.10;;;;;;;6.83;100.00;149174.44;5042927;28;20029;-63
2022/11/30 01:12:40;;;;;;;96.17;30.13;;;;;;;6.90;100.00;149192.50;5037060;28;20028;-63
2022/11/30 01:15:06;;;;;;;89.07;28.63;;;;;;;6.93;100.00;149200.28;5023141;28;20033;-63
2022/11/30 01:17:32;;;;;;;96.97;30.30;;;;;;;6.91;100.00;149195.13;5031706;28;20025;-63
2022/11/30 01:19:57;;;;;;;104.00;30.43;;;;;;;6.94;100.00;149202.84;5044166;28;20032;-63
2022/11/30 01:22:23;;;;;;;104.53;30.10;;;;;;;6.92;100.00;149197.69;5030482;28;20388;-63
2022/11/30 01:24:48;;;;;;;93.27;28.67;;;;;;;6.93;100.00;149200.28;5042542;28;20071;-64
2022/11/30 01:27:13;;;;;;;87.43;28.03;;;;;;;6.90;100.00;149192.50;5026440;28;20668;-63
2022/11/30 01:29:39;;;;;;;83.13;27.23;;;;;;;6.89;100.00;149189.91;5032080;28;20102;-63
2022/11/30 01:32:05;;;;;;;92.17;29.37;;;;;;;6.92;100.00;149197.69;5028999;28;20029;-63
2022/11/30 01:34:30;;;;;;;94.30;29.10;;;;;;;6.92;100.00;149197.69;5035860;28;20029;-63
2022/11/30 01:36:56;;;;;;;85.40;27.53;;;;;;;6.88;100.00;149186.03;5028395;28;20079;-64
2022/11/30 01:39:21;;;;;;;103.80;29.43;;;;;;;6.85;100.00;149178.31;5034855;28;20063;-63
2022/11/30 01:41:46;;;;;;;91.60;29.37;;;;;;;6.89;100.00;149189.91;5036983;28;20033;-63
2022/11/30 01:44:15;;;;;;;78.90;26.53;;;;;;;6.82;100.00;149171.88;5021300;28;20121;-63
2022/11/30 01:46:48;;;;;;;79.27;26.00;;;;;;;6.77;100.00;149158.94;5018829;28;20033;-64
2022/11/30 01:49:24;;;;;;;64.43;24.87;;;;;;;6.73;100.00;149148.63;5034159;28;20028;-63
2022/11/30 01:52:10;;;;;;;65.73;24.77;;;;;;;6.64;100.00;149125.38;5030064;28;20087;-64
2022/11/30 01:54:50;;;;;;;78.17;25.97;;;;;;;6.67;100.00;149133.16;5035142;28;20053;-63
2022/11/30 01:57:33;;;;;;;74.13;26.30;;;;;;;6.67;100.00;149134.44;5048593;28;20104;-63
2022/11/30 02:00:01;;;;;;;72.53;26.20;;;;;;;6.68;100.00;149137.00;5034525;28;20037;-65
2022/11/30 02:02:54;;;;;;;68.27;26.07;;;;;;;6.64;100.00;149125.38;5027249;28;20103;-65
2022/11/30 02:05:20;;;;;;;66.93;24.83;;;;;;;6.59;100.00;149112.47;5029098;28;20021;-64
2022/11/30 02:07:46;;;;;;;65.23;24.67;;;;;;;6.61;100.00;149118.94;5023375;28;20064;-64
2022/11/30 02:10:16;;;;;;;64.83;24.10;;;;;;;6.62;100.00;149120.22;5029876;28;20026;-64
2022/11/30 02:13:00;;;;;;;73.13;25.23;;;;;;;6.61;100.00;149117.63;5031409;28;20025;-65
2022/11/30 02:15:36;;;;;;;73.30;25.07;;;;;;;6.57;100.00;149107.31;5037057;28;20284;-64
2022/11/30 02:18:10;;;;;;;76.43;26.23;;;;;;;6.62;100.00;149121.50;5017903;28;20029;-65
2022/11/30 02:20:51;;;;;;;68.17;23.83;;;;;;;6.53;100.00;149098.25;5023764;28;21613;-65
2022/11/30 02:23:53;;;;;;;62.53;23.80;;;;;;;6.57;100.00;149107.31;5033369;28;20025;-64
2022/11/30 02:26:27;;;;;;;;;;;;;;;6.55;100.00;149102.16;5032731;28;20595;-65
2022/11/30 02:29:04;;;;;;;54.87;20.77;;;;;;;6.52;100.00;149094.38;5027399;28;19912;-64
2022/11/30 02:32:08;;;;;;;61.30;23.10;;;;;;;6.52;100.00;149094.38;5030089;28;20112;-65
2022/11/30 02:34:36;;;;;;;64.33;24.40;;;;;;;6.53;100.00;149096.97;5031924;28;20037;-65
2022/11/30 02:37:04;;;;;;;69.03;25.50;;;;;;;6.52;100.00;149094.38;5019348;28;20442;-65
2022/11/30 02:39:29;;;;;;;73.47;26.00;;;;;;;6.56;100.00;149104.75;5035913;28;20036;-65
2022/11/30 02:41:55;;;;;;;64.57;22.33;;;;;;;6.56;100.00;149106.03;5029139;28;20543;-65
2022/11/30 02:44:21;;;;;;;75.03;26.10;;;;;;;6.47;100.00;149082.78;5029666;28;20031;-65
2022/11/30 02:46:51;;;;;;;71.67;25.00;;;;;;;6.43;100.00;149073.78;5017851;28;20121;-65
2022/11/30 02:49:32;;;;;;;69.50;24.50;;;;;;;6.45;100.00;149078.94;5027247;28;20416;-65
2022/11/30 02:52:00;;;;;;;64.83;24.43;;;;;;;6.45;100.00;149078.94;5028873;28;20036;-65
2022/11/30 02:54:26;;;;;;;67.57;24.10;;;;;;;6.45;100.00;149078.94;5029475;28;20084;-65
2022/11/30 02:56:51;;;;;;;75.67;25.13;;;;;;;6.43;100.00;149073.78;5026600;28;20608;-65
2022/11/30 02:59:16;;;;;;;62.23;23.27;;;;;;;6.45;100.00;149078.94;5031052;28;20108;-65
2022/11/30 03:01:42;;;;;;;77.57;25.97;;;;;;;6.46;100.00;149081.50;5023240;28;20029;-65
2022/11/30 03:04:07;;;;;;;67.97;25.37;;;;;;;6.45;100.00;149077.63;5019210;28;20026;-65
2022/11/30 03:06:33;;;;;;;61.03;22.47;;;;;;;6.42;100.00;149071.19;5015368;28;20053;-65
2022/11/30 03:08:58;;;;;;;59.63;23.13;;;;;;;6.41;100.00;149067.28;5021908;28;20033;-64
2022/11/30 03:11:24;;;;;;;70.27;24.00;;;;;;;6.42;100.00;149069.84;5028841;28;20029;-64
2022/11/30 03:13:50;;;;;;;63.97;23.40;;;;;;;6.39;100.00;149063.41;5039923;28;20128;-65
2022/11/30 03:16:15;;;;;;;59.23;23.20;;;;;;;6.35;100.00;149053.09;5019910;28;20067;-65
2022/11/30 03:18:40;;;;;;;66.07;25.07;;;;;;;6.37;100.00;149058.25;5038523;28;20034;-65
2022/11/30 03:21:08;;;;;;;65.93;23.73;;;;;;;6.34;100.00;149050.53;5032082;28;20028;-64
2022/11/30 03:23:34;;;;;;;72.90;25.43;;;;;;;6.33;100.00;149047.94;5050545;28;20032;-64
2022/11/30 03:26:00;;;;;;;67.27;24.17;;;;;;;6.34;100.00;149050.53;5045817;28;20060;-65
2022/11/30 03:28:26;;;;;;;73.07;26.40;;;;;;;6.33;100.00;149047.94;5042972;28;20127;-65
2022/11/30 03:30:51;;;;;;;70.63;25.73;;;;;;;6.31;100.00;149041.50;5039455;28;20025;-64
2022/11/30 03:33:17;;;;;;;77.30;26.33;;;;;;;6.26;100.00;149029.88;5025641;28;20033;-64
2022/11/30 03:35:43;;;;;;;76.77;26.33;;;;;;;6.24;100.00;149024.72;5042631;28;20447;-65
2022/11/30 03:38:08;;;;;;;72.87;25.10;;;;;;;6.27;100.00;149031.16;5040815;28;20033;-64
2022/11/30 03:40:35;;;;;;;82.17;26.63;;;;;;;6.24;100.00;149024.72;5049958;28;20020;-64
2022/11/30 03:43:00;;;;;;;75.10;24.70;;;;;;;6.22;100.00;149019.56;5043711;28;20082;-64
2022/11/30 03:45:26;;;;;;;71.90;25.80;;;;;;;6.21;100.00;149016.97;5032558;28;20030;-64
2022/11/30 03:47:51;;;;;;;73.97;25.97;;;;;;;6.21;100.00;149015.69;5021377;28;20362;-64
2022/11/30 03:50:16;;;;;;;79.53;26.30;;;;;;;6.19;100.00;149011.84;5032676;28;20070;-65
2022/11/30 03:52:42;;;;;;;76.03;25.93;;;;;;;6.26;100.00;149029.88;5027051;28;20057;-64
2022/11/30 03:55:07;;;;;;;70.20;25.30;;;;;;;6.18;100.00;149009.25;5033184;28;20029;-65
2022/11/30 03:57:32;;;;;;;78.13;25.30;;;;;;;6.17;100.00;149006.63;5030520;28;20025;-65
2022/11/30 03:59:58;;;;;;;83.83;27.30;;;;;;;6.19;100.00;149011.84;5050145;28;20025;-65
2022/11/30 04:02:23;;;;;;;76.47;26.17;;;;;;;6.12;100.00;148993.75;5032687;28;20070;-65
2022/11/30 04:04:48;;;;;;;83.50;28.43;;;;;;;6.14;100.00;148998.91;5039011;28;20068;-65
2022/11/30 04:07:14;;;;;;;90.67;28.67;;;;;;;6.13;100.00;148996.31;5027544;28;20030;-65
2022/11/30 04:09:39;;;;;;;93.20;29.90;;;;;;;6.16;100.00;149004.06;5044825;28;20025;-65
2022/11/30 04:12:05;;;;;;;108.07;29.90;;;;;;;6.23;100.00;149022.13;5052052;28;20385;-65
2022/11/30 04:14:30;;;;;;;105.17;30.13;;;;;;;6.24;100.00;149024.72;5034949;28;20079;-64
2022/11/30 04:16:56;;;;;;;99.43;30.00;;;;;;;6.14;100.00;148998.91;5032984;28;20022;-65
2022/11/30 04:19:21;;;;;;;93.50;29.03;;;;;;;6.11;100.00;148991.16;5036073;28;20021;-64
2022/11/30 04:21:46;;;;;;;99.67;30.93;;;;;;;6.13;100.00;148996.31;5030371;28;20527;-65
2022/11/30 04:24:12;;;;;;;111.57;30.40;;;;;;;6.16;100.00;149004.06;5037235;28;20066;-65
2022/11/30 04:26:37;;;;;;;128.70;32.43;;;;;;;6.21;100.00;149016.97;5025674;28;20033;-65
2022/11/30 04:29:04;;;;;;;120.40;31.97;;;;;;;6.11;100.00;148992.47;5044929;28;20033;-65
2022/11/30 04:31:29;;;;;;;123.90;32.67;;;;;;;6.14;100.00;149000.19;5019786;28;20040;-65
2022/11/30 04:33:55;;;;;;;105.17;29.80;;;;;;;6.05;100.00;148976.94;5033496;28;20036;-65
2022/11/30 04:36:20;;;;;;;100.67;30.93;;;;;;;5.98;100.00;148958.91;5029653;28;20017;-65
2022/11/30 04:38:48;;;;;;;109.23;31.00;;;;;;;5.95;100.00;148949.91;5031167;28;20033;-65
2022/11/30 04:41:13;;;;;;;98.90;28.47;;;;;;;5.97;100.00;148955.06;5020416;28;20026;-65
2022/11/30 04:43:39;;;;;;;93.63;28.30;;;;;;;5.94;100.00;148948.63;5030113;28;20021;-65
2022/11/30 04:46:04;;;;;;;89.57;28.77;;;;;;;5.92;100.00;148943.41;5023747;28;20366;-65
2022/11/30 04:48:30;;;;;;;92.23;28.30;;;;;;;5.94;100.00;148948.63;5031608;28;20485;-65
2022/11/30 04:51:03;;;;;;;92.67;27.40;;;;;;;5.95;100.00;148949.91;5016174;28;20144;-65
2022/11/30 04:53:28;;;;;;;88.10;27.23;;;;;;;5.87;100.00;148931.78;5027912;28;20041;-65
2022/11/30 04:55:53;;;;;;;83.43;26.20;;;;;;;5.91;100.00;148939.56;5034729;28;20033;-65
2022/11/30 04:58:19;;;;;;;81.73;27.33;;;;;;;5.93;100.00;148946.00;5029560;28;20147;-65
2022/11/30 05:00:44;;;;;;;87.37;26.77;;;;;;;5.92;100.00;148942.13;5026100;28;20052;-65
2022/11/30 05:03:10;;;;;;;83.33;26.33;;;;;;;5.94;100.00;148947.31;5015673;28;20432;-65
2022/11/30 05:05:35;;;;;;;93.37;27.03;;;;;;;5.88;100.00;148934.34;5023895;28;20093;-65
2022/11/30 05:08:00;;;;;;;82.43;26.30;;;;;;;5.87;100.00;148930.50;5030939;28;20021;-65
2022/11/30 05:10:27;;;;;;;79.50;25.83;;;;;;;5.86;100.00;148927.91;5030238;28;20036;-65
2022/11/30 05:12:53;;;;;;;74.57;23.43;;;;;;;5.84;100.00;148924.06;5032858;28;20105;-65
2022/11/30 05:15:19;;;;;;;71.47;23.73;;;;;;;5.89;100.00;148936.94;5025733;28;20021;-65
2022/11/30 05:17:44;;;;;;;83.00;25.97;;;;;;;5.85;100.00;148926.63;5012875;28;20388;-65
2022/11/30 05:20:10;;;;;;;76.93;26.53;;;;;;;5.86;100.00;148929.19;5021286;28;20026;-65
2022/11/30 05:22:35;;;;;;;87.23;26.77;;;;;;;5.88;100.00;148934.34;5025556;28;20562;-65
2022/11/30 05:25:01;;;;;;;89.10;26.17;;;;;;;5.87;100.00;148931.78;5019376;28;20033;-65
2022/11/30 05:27:27;;;;;;;90.50;28.90;;;;;;;5.89;100.00;148936.94;5015500;28;20026;-65
2022/11/30 05:29:52;;;;;;;92.23;27.27;;;;;;;5.87;100.00;148931.78;5026988;28;20025;-65
2022/11/30 05:32:17;;;;;;;95.47;27.17;;;;;;;5.83;100.00;148921.47;5031968;28;20495;-65
2022/11/30 05:34:43;;;;;;;106.50;28.20;;;;;;;5.85;100.00;148926.63;5032020;28;20095;-65
2022/11/30 05:37:08;;;;;;;99.27;28.90;;;;;;;5.86;100.00;148927.91;5024305;28;20030;-64
2022/11/30 05:39:33;;;;;;;100.17;29.57;;;;;;;5.85;100.00;148925.34;5028227;28;20481;-64
2022/11/30 05:41:59;;;;;;;81.03;24.27;;;;;;;5.80;100.00;148913.69;5031747;28;20056;-64
2022/11/30 05:44:24;;;;;;;102.23;28.00;;;;;;;5.85;100.00;148926.63;5031097;28;20044;-64
2022/11/30 05:46:52;;;;;;;103.83;28.10;;;;;;;5.91;100.00;148940.84;5031868;28;20096;-64
2022/11/30 05:49:18;;;;;;;95.27;26.47;;;;;;;5.84;100.00;148924.06;5031764;28;20029;-64
2022/11/30 05:51:43;;;;;;;90.80;26.40;;;;;;;5.80;100.00;148913.69;5032310;28;20023;-64
2022/11/30 05:54:08;;;;;;;97.10;27.07;;;;;;;5.80;100.00;148913.69;5031695;28;20025;-64
2022/11/30 05:56:34;;;;;;;92.17;27.20;;;;;;;5.78;100.00;148908.53;5031435;28;20091;-64
2022/11/30 05:58:59;;;;;;;87.50;26.17;;;;;;;5.86;100.00;148929.19;5031506;28;20056;-65
2022/11/30 06:01:27;;;;;;;80.03;24.53;;;;;;;5.81;100.00;148916.28;5030897;28;20033;-65
2022/11/30 06:03:52;;;;;;;77.83;23.67;;;;;;;5.82;100.00;148917.59;5031632;28;20087;-65
2022/11/30 06:06:18;;;;;;;80.80;24.27;;;;;;;5.84;100.00;148924.06;5031556;28;20029;-65
2022/11/30 06:08:45;;;;;;;73.37;23.87;;;;;;;5.87;100.00;148931.78;5030984;28;20028;-65
2022/11/30 06:11:11;;;;;;;77.97;23.60;;;;;;;5.85;100.00;148926.63;5031240;28;20057;-65
2022/11/30 06:13:38;;;;;;;76.67;23.93;;;;;;;5.88;100.00;148934.34;5031085;28;20133;-65
2022/11/30 06:16:04;;;;;;;74.80;23.00;;;;;;;5.91;100.00;148940.84;5031106;28;20024;-65
2022/11/30 06:18:30;;;;;;;66.03;22.13;;;;;;;5.85;100.00;148925.34;5030769;28;20465;-65
2022/11/30 06:21:07;;;;;;;61.93;21.57;;;;;;;5.88;100.00;148934.34;5031461;28;20429;-65
2022/11/30 06:23:33;;;;;;;68.73;21.80;;;;;;;5.82;100.00;148918.91;5030992;28;20013;-66
2022/11/30 06:26:06;;;;;;;64.60;22.00;;;;;;;5.91;100.00;148939.56;5030976;28;20083;-65
2022/11/30 06:28:32;;;;;;;59.63;20.40;;;;;;;5.89;100.00;148935.66;5031265;28;20436;-65
2022/11/30 06:31:02;;;;;;;63.50;20.70;;;;;;;5.87;100.00;148930.50;5030775;28;20029;-65
2022/11/30 06:33:28;;;;;;;59.67;20.83;;;;;;;5.87;100.00;148931.78;5030909;28;20029;-65
2022/11/30 06:35:54;;;;;;;63.93;21.60;;;;;;;5.86;100.00;148929.19;5029881;28;20071;-66
2022/11/30 06:38:20;;;;;;;71.37;21.03;;;;;;;5.87;100.00;148931.78;5031185;28;20072;-66
2022/11/30 06:40:45;;;;;;;60.37;20.40;;;;;;;5.81;100.00;148916.28;5029186;28;20128;-66
2022/11/30 06:43:11;;;;;;;63.57;21.27;;;;;;;5.80;100.00;148913.69;5031062;28;20124;-66
2022/11/30 06:45:37;;;;;;;70.53;21.53;;;;;;;5.78;100.00;148907.25;5031120;28;20541;-65
2022/11/30 06:48:02;;;;;;;80.00;23.20;;;;;;;5.79;100.00;148909.84;5030848;28;20024;-66
2022/11/30 06:50:28;;;;;;;84.47;24.97;;;;;;;5.77;100.00;148904.69;5030819;28;20485;-65
2022/11/30 06:52:55;;;;;;;83.73;23.17;;;;;;;5.78;100.00;148908.53;5028307;28;20067;-66
2022/11/30 06:55:20;;;;;;;78.40;23.37;;;;;;;5.79;100.00;148911.13;5022197;28;20021;-66
2022/11/30 06:57:46;;;;;;;81.93;24.07;;;;;;;5.78;100.00;148908.53;5016942;28;20477;-66
2022/11/30 07:00:13;;;;;;;90.90;25.07;;;;;;;5.82;100.00;148917.59;5019568;28;20056;-66
2022/11/30 07:02:38;;;;;;;80.57;23.90;;;;;;;5.78;100.00;148908.53;5021092;28;20032;-66
2022/11/30 07:05:04;;;;;;;71.80;22.37;;;;;;;5.80;100.00;148912.41;5015526;28;20022;-66
2022/11/30 07:07:30;;;;;;;72.83;22.20;;;;;;;5.83;100.00;148920.19;5023867;28;20014;-66
2022/11/30 07:09:56;;;;;;;73.47;21.80;;;;;;;5.81;100.00;148916.28;5018039;28;20022;-66
2022/11/30 07:12:22;;;;;;;81.47;23.73;;;;;;;5.85;100.00;148925.34;5016113;28;20036;-66
2022/11/30 07:14:51;;;;;;;75.40;23.60;;;;;;;5.81;100.00;148916.28;5016769;28;20033;-66
2022/11/30 07:17:16;;;;;;;78.77;23.23;;;;;;;5.81;100.00;148915.00;5023297;28;20079;-65
2022/11/30 07:19:41;;;;;;;69.57;20.37;;;;;;;5.81;100.00;148916.28;5020000;28;20038;-65
2022/11/30 07:22:07;;;;;;;72.93;23.60;;;;;;;5.78;100.00;148908.53;5021492;28;20498;-66
2022/11/30 07:27:16;;;;;;;71.13;21.47;;;;;;;5.81;100.00;148916.28;5010616;28;20061;-66
2022/11/30 07:29:41;;;;;;;68.90;22.10;;;;;;;5.79;100.00;148911.13;5010646;28;20041;-66
2022/11/30 07:32:07;;;;;;;62.40;19.60;;;;;;;5.81;100.00;148916.28;5011021;28;20092;-66
2022/11/30 07:34:32;;;;;;;69.83;21.20;;;;;;;5.83;100.00;148920.19;5010877;28;20029;-66
2022/11/30 07:36:57;;;;;;;67.50;21.80;;;;;;;5.84;100.00;148924.06;5010876;28;20466;-66
2022/11/30 07:39:23;;;;;;;66.53;21.17;;;;;;;5.85;100.00;148926.63;5010773;28;20033;-66
2022/11/30 07:41:49;;;;;;;70.33;22.17;;;;;;;5.87;100.00;148931.78;5020826;28;20752;-66
2022/11/30 07:44:14;;;;;;;68.00;22.07;;;;;;;5.84;100.00;148924.06;5030649;28;20025;-66
2022/11/30 07:46:39;;;;;;;59.23;20.37;;;;;;;5.85;100.00;148926.63;5030510;28;20060;-66
2022/11/30 07:49:06;;;;;;;62.57;21.03;;;;;;;5.83;100.00;148921.47;5030454;28;20025;-66
2022/11/30 07:51:32;;;;;;;66.93;20.60;;;;;;;5.81;100.00;148916.28;5030639;28;20056;-66
2022/11/30 07:53:58;;;;;;;69.53;21.90;;;;;;;5.84;100.00;148924.06;5030099;28;20121;-66
2022/11/30 07:56:25;;;;;;;73.20;22.67;;;;;;;5.85;100.00;148925.34;5030465;28;20029;-66
2022/11/30 07:58:54;;;;;;;73.13;22.63;;;;;;;5.83;100.00;148920.19;5029676;28;20365;-66
2022/11/30 08:01:21;;;;;;;69.80;22.03;;;;;;;5.88;100.00;148934.34;5030430;28;20025;-66
2022/11/30 08:03:50;;;;;;;69.23;20.97;;;;;;;5.85;100.00;148926.63;5030300;28;20469;-65
2022/11/30 08:06:24;;;;;;;70.77;22.23;;;;;;;5.87;100.00;148930.50;5030035;28;20029;-65
2022/11/30 08:08:52;;;;;;;87.33;22.70;;;;;;;5.96;100.00;148952.47;5032133;28;20025;-66
2022/11/30 08:11:22;;;;;;;89.33;24.07;;;;;;;5.98;100.00;148957.63;5033375;28;20028;-66
2022/11/30 08:13:48;;;;;;;74.00;22.43;;;;;;;5.94;100.00;148948.63;5034007;28;20069;-66
2022/11/30 08:16:16;;;;;;;84.67;22.40;;;;;;;5.95;100.00;148949.91;5029793;28;20042;-66
2022/11/30 08:18:41;;;;;;;75.37;21.83;;;;;;;5.93;100.00;148944.72;5033362;28;20461;-66
2022/11/30 08:21:08;;;;;;;74.27;23.17;;;;;;;5.94;100.00;148947.31;5033241;28;20075;-65
2022/11/30 08:23:39;;;;;;;85.90;23.03;;;;;;;5.94;100.00;148947.31;5019786;28;20014;-66
2022/11/30 08:26:07;;;;;;;95.15;24.25;;;;;;;5.94;100.00;148948.63;5013832;28;20065;-66
2022/11/30 08:28:36;;;;;;;92.10;24.93;;;;;;;5.93;100.00;148944.72;5013755;28;20041;-66
2022/11/30 08:31:06;;;;;;;84.00;22.00;;;;;;;5.92;100.00;148942.13;5013234;28;20087;-65
2022/11/30 08:33:33;;;;;;;66.50;19.97;;;;;;;5.92;100.00;148942.13;5019528;28;20087;-66
2022/11/30 08:36:11;;;;;;;88.80;23.10;;;;;;;5.91;100.00;148939.56;5033486;28;20657;-66
2022/11/30 08:38:37;;;;;;;96.70;24.77;;;;;;;5.91;100.00;148939.56;5033344;28;20033;-65
2022/11/30 08:41:05;;;;;;;84.77;22.00;;;;;;;5.91;100.00;148939.56;5032965;28;20056;-66
2022/11/30 08:43:30;;;;;;;132.07;28.53;;;;;;;5.93;100.00;148944.72;5033014;28;20021;-65
2022/11/30 08:45:56;;;;;;;120.03;28.03;;;;;;;5.85;100.00;148926.63;5033145;28;20472;-66
2022/11/30 08:48:21;;;;;;;98.67;22.63;;;;;;;5.79;100.00;148911.13;5032813;28;20025;-66
2022/11/30 08:50:47;;;;;;;134.63;30.17;;;;;;;5.77;100.00;148905.97;5032052;28;20419;-65
2022/11/30 08:53:12;;;;;;;125.03;29.50;;;;;;;5.82;100.00;148917.59;5032820;28;20128;-66
2022/11/30 08:55:38;;;;;;;91.77;23.97;;;;;;;5.83;100.00;148920.19;5032454;28;20028;-66
2022/11/30 08:58:03;;;;;;;112.40;27.63;;;;;;;5.86;100.00;148929.19;5032691;28;20028;-66
2022/11/30 09:00:29;;;;;;;87.20;27.00;;;;;;;5.92;100.00;148942.13;5033002;28;20026;-66
2022/11/30 09:02:55;;;;;;;95.00;25.67;;;;;;;5.92;100.00;148942.13;5032655;28;20105;-66
2022/11/30 09:05:20;;;;;;;82.13;23.70;;;;;;;5.95;100.00;148949.91;5032872;28;20018;-66
2022/11/30 09:07:46;;;;;;;71.10;21.00;;;;;;;5.95;100.00;148951.19;5032023;28;20036;-66
2022/11/30 09:10:11;;;;;;;74.33;20.47;;;;;;;5.96;100.00;148952.47;5032603;28;20706;-66
2022/11/30 09:12:38;;;;;;;81.50;23.97;;;;;;;6.02;100.00;148969.22;5032636;28;20030;-66
2022/11/30 09:15:05;;;;;;;98.10;26.63;;;;;;;6.04;100.00;148973.09;5032260;28;20064;-66
2022/11/30 09:17:31;;;;;;;93.10;27.17;;;;;;;6.03;100.00;148970.50;5017172;28;20036;-65
2022/11/30 09:19:56;;;;;;;104.40;27.70;;;;;;;6.21;100.00;149015.69;5018958;28;20025;-66
2022/11/30 09:22:22;;;;;;;102.67;27.07;;;;;;;6.14;100.00;148998.91;5032539;28;20025;-66
2022/11/30 09:24:47;;;;;;;103.23;28.83;;;;;;;6.12;100.00;148993.75;5031597;28;20392;-66
2022/11/30 09:27:13;;;;;;;94.43;28.07;;;;;;;6.17;100.00;149006.63;5032244;28;20036;-66
2022/11/30 09:29:38;;;;;;;100.27;28.57;;;;;;;6.14;100.00;149000.19;5031978;28;20037;-66
2022/11/30 09:32:04;;;;;;;109.87;29.60;;;;;;;6.22;100.00;149019.56;5031898;28;20192;-66
2022/11/30 09:34:29;;;;;;;96.40;27.80;;;;;;;6.24;100.00;149024.72;5032006;28;20049;-66
2022/11/30 09:36:54;;;;;;;86.70;27.17;;;;;;;6.31;100.00;149042.81;5031971;28;20052;-66
2022/11/30 09:39:20;;;;;;;80.37;26.13;;;;;;;6.27;100.00;149032.44;5032239;28;20075;-66
2022/11/30 09:42:00;;;;;;;88.60;27.03;;;;;;;6.29;100.00;149037.59;5031477;28;20551;-65
2022/11/30 09:44:50;;;;;;;78.80;25.70;;;;;;;6.24;100.00;149024.72;5031918;28;20384;-66
2022/11/30 09:47:44;;;;;;;88.77;26.57;;;;;;;6.21;100.00;149016.97;5032074;28;20040;-66
2022/11/30 09:50:14;;;;;;;79.90;25.60;;;;;;;6.24;100.00;149023.44;5031948;28;20034;-66
2022/11/30 09:52:43;;;;;;;80.17;25.50;;;;;;;6.21;100.00;149015.69;5031993;28;20100;-66
2022/11/30 09:55:13;;;;;;;80.13;24.60;;;;;;;6.21;100.00;149015.69;5031971;28;20480;-66
2022/11/30 09:57:52;;;;;;;83.20;25.27;;;;;;;6.21;100.00;149016.97;5031610;28;20075;-66
2022/11/30 10:00:20;;;;;;;90.17;26.83;;;;;;;6.23;100.00;149020.84;5012051;28;20026;-66
2022/11/30 10:02:48;;;;;;;111.30;29.13;;;;;;;6.16;100.00;149004.06;5012148;28;20466;-66
2022/11/30 10:05:25;;;;;;;89.00;24.87;;;;;;;6.12;100.00;148993.75;5011787;28;20064;-66
2022/11/30 10:08:39;;;;;;;103.77;27.17;;;;;;;6.00;100.00;148962.78;5022409;28;20022;-66
2022/11/30 10:11:33;;;;;;;113.07;26.73;;;;;;;6.07;100.00;148980.88;5032792;28;20041;-66
2022/11/30 10:14:25;;;;;;;102.80;27.37;;;;;;;6.15;100.00;149001.47;5031827;28;20034;-65
2022/11/30 10:17:09;;;;;;;111.57;27.43;;;;;;;6.11;100.00;148991.16;5021043;28;20034;-65
2022/11/30 10:20:07;;;;;;;95.33;24.57;;;;;;;6.09;100.00;148986.03;5015854;28;20040;-66
2022/11/30 10:22:52;;;;;;;117.27;28.87;;;;;;;6.12;100.00;148993.75;5030695;28;20116;-66
2022/11/30 10:25:31;;;;;;;121.73;28.93;;;;;;;6.08;100.00;148983.44;5031063;28;20033;-66
2022/11/30 10:28:11;;;;;;;119.43;28.43;;;;;;;6.07;100.00;148980.88;5031367;28;20041;-65
2022/11/30 10:30:36;;;;;;;105.53;28.93;;;;;;;6.10;100.00;148988.59;5030351;28;20033;-65
2022/11/30 10:33:24;;;;;;;113.97;28.87;;;;;;;6.16;100.00;149004.06;5030579;28;20473;-65
2022/11/30 10:35:53;;;;;;;107.23;28.43;;;;;;;6.21;100.00;149016.97;5031157;28;20048;-66
2022/11/30 10:38:27;;;;;;;115.03;28.93;;;;;;;6.22;100.00;149018.28;5031242;28;20021;-66
2022/11/30 10:41:00;;;;;;;129.70;30.03;;;;;;;6.30;100.00;149038.88;5030786;28;20032;-66
2022/11/30 10:43:31;;;;;;;125.37;30.13;;;;;;;6.27;100.00;149032.44;5030564;28;20025;-65
2022/11/30 10:45:57;;;;;;;125.40;30.27;;;;;;;6.37;100.00;149058.25;5031169;28;20376;-66
2022/11/30 10:48:47;;;;;;;115.00;29.90;;;;;;;6.34;100.00;149050.53;5031252;28;20025;-66
2022/11/30 10:51:13;;;;;;;98.73;27.93;;;;;;;6.38;100.00;149060.84;5016521;28;20025;-66
2022/11/30 10:53:38;;;;;;;89.20;27.30;;;;;;;6.36;100.00;149054.41;5030958;28;20026;-65
2022/11/30 10:56:21;;;;;;;79.57;26.13;;;;;;;6.43;100.00;149073.78;5031039;28;20025;-65
2022/11/30 10:59:01;;;;;;;90.90;27.03;;;;;;;6.39;100.00;149063.41;5031156;28;20470;-66
2022/11/30 11:01:38;;;;;;;82.77;25.03;;;;;;;6.50;100.00;149090.53;5030928;28;20019;-65
2022/11/30 11:04:08;;;;;;;86.90;27.00;;;;;;;6.47;100.00;149084.06;5030169;28;20025;-66
2022/11/30 11:06:35;;;;;;;78.23;25.13;;;;;;;6.42;100.00;149071.19;5029890;28;20021;-66
2022/11/30 11:09:28;;;;;;;76.67;25.17;;;;;;;6.44;100.00;149076.34;5030644;28;20033;-66
2022/11/30 11:11:55;;;;;;;84.87;27.67;;;;;;;6.45;100.00;149078.94;5030350;28;20501;-66
2022/11/30 11:14:23;;;;;;;74.83;23.33;;;;;;;6.45;100.00;149078.94;5030845;28;20026;-66
2022/11/30 11:17:02;;;;;;;59.63;19.83;;;;;;;6.38;100.00;149060.84;5021453;28;20381;-65